sensor_id;sensor_type;location;lat;lon;timestamp;P1;durP1;ratioP1;P2;durP2;ratioP2
25731;SDS011;13585;50.864;4.406;2023-04-03T00:01:08;3.22;;;2.78;;
25731;SDS011;13585;50.864;4.406;2023-04-03T00:03:35;4.78;;;3.50;;
25731;SDS011;13585;50.864;4.406;2023-04-03T00:06:01;5.07;;;2.90;;
25731;SDS011;13585;50.864;4.406;2023-04-03T00:08:28;4.00;;;3.00;;
25731;SDS011;13585;50.864;4.406;2023-04-03T00:10:55;4.43;;;3.13;;
25731;SDS011;13585;50.864;4.406;2023-04-03T00:13:21;3.67;;;3.10;;
25731;SDS011;13585;50.864;4.406;2023-04-03T00:15:48;3.88;;;2.90;;
25731;SDS011;13585;50.864;4.406;2023-04-03T00:18:13;4.38;;;3.17;;
25731;SDS011;13585;50.864;4.406;2023-04-03T00:20:40;3.42;;;2.90;;
25731;SDS011;13585;50.864;4.406;2023-04-03T00:23:06;4.28;;;3.05;;
25731;SDS011;13585;50.864;4.406;2023-04-03T00:25:32;4.22;;;3.00;;
25731;SDS011;13585;50.864;4.406;2023-04-03T00:27:57;3.83;;;3.10;;
25731;SDS011;13585;50.864;4.406;2023-04-03T00:30:23;3.83;;;3.03;;
25731;SDS011;13585;50.864;4.406;2023-04-03T00:32:49;5.07;;;3.00;;
25731;SDS011;13585;50.864;4.406;2023-04-03T00:35:16;3.30;;;2.85;;
25731;SDS011;13585;50.864;4.406;2023-04-03T00:37:43;4.03;;;2.80;;
25731;SDS011;13585;50.864;4.406;2023-04-03T00:40:09;4.40;;;3.13;;
25731;SDS011;13585;50.864;4.406;2023-04-03T00:42:39;4.45;;;3.13;;
25731;SDS011;13585;50.864;4.406;2023-04-03T00:47:38;4.03;;;3.00;;
25731;SDS011;13585;50.864;4.406;2023-04-03T00:50:05;3.75;;;3.25;;
25731;SDS011;13585;50.864;4.406;2023-04-03T00:52:32;4.15;;;2.97;;
25731;SDS011;13585;50.864;4.406;2023-04-03T00:54:58;4.00;;;2.95;;
25731;SDS011;13585;50.864;4.406;2023-04-03T00:57:28;4.60;;;3.15;;
25731;SDS011;13585;50.864;4.406;2023-04-03T00:59:57;4.90;;;3.25;;
25731;SDS011;13585;50.864;4.406;2023-04-03T01:02:29;3.70;;;2.92;;
25731;SDS011;13585;50.864;4.406;2023-04-03T01:04:54;5.07;;;3.30;;
25731;SDS011;13585;50.864;4.406;2023-04-03T01:07:21;3.50;;;2.90;;
25731;SDS011;13585;50.864;4.406;2023-04-03T01:09:51;3.33;;;2.90;;
25731;SDS011;13585;50.864;4.406;2023-04-03T01:12:22;3.70;;;3.07;;
25731;SDS011;13585;50.864;4.406;2023-04-03T01:14:50;3.53;;;2.90;;
25731;SDS011;13585;50.864;4.406;2023-04-03T01:17:37;3.33;;;2.95;;
25731;SDS011;13585;50.864;4.406;2023-04-03T01:20:14;3.97;;;3.20;;
25731;SDS011;13585;50.864;4.406;2023-04-03T01:25:48;3.38;;;2.75;;
25731;SDS011;13585;50.864;4.406;2023-04-03T01:28:18;3.63;;;2.90;;
25731;SDS011;13585;50.864;4.406;2023-04-03T01:33:35;3.80;;;3.17;;
25731;SDS011;13585;50.864;4.406;2023-04-03T01:36:02;4.05;;;3.00;;
25731;SDS011;13585;50.864;4.406;2023-04-03T01:38:28;4.78;;;3.08;;
25731;SDS011;13585;50.864;4.406;2023-04-03T01:40:54;3.90;;;2.83;;
25731;SDS011;13585;50.864;4.406;2023-04-03T01:43:19;4.50;;;3.03;;
25731;SDS011;13585;50.864;4.406;2023-04-03T01:45:45;3.42;;;2.83;;
25731;SDS011;13585;50.864;4.406;2023-04-03T01:48:11;4.28;;;2.90;;
25731;SDS011;13585;50.864;4.406;2023-04-03T01:50:38;5.22;;;3.00;;
25731;SDS011;13585;50.864;4.406;2023-04-03T01:53:04;4.45;;;3.10;;
25731;SDS011;13585;50.864;4.406;2023-04-03T01:55:29;4.75;;;2.92;;
25731;SDS011;13585;50.864;4.406;2023-04-03T01:57:55;3.97;;;2.75;;
25731;SDS011;13585;50.864;4.406;2023-04-03T02:00:20;3.33;;;2.58;;
25731;SDS011;13585;50.864;4.406;2023-04-03T02:02:46;3.00;;;2.67;;
25731;SDS011;13585;50.864;4.406;2023-04-03T02:05:12;3.95;;;2.92;;
25731;SDS011;13585;50.864;4.406;2023-04-03T02:07:37;3.78;;;2.95;;
25731;SDS011;13585;50.864;4.406;2023-04-03T02:10:03;3.42;;;2.90;;
25731;SDS011;13585;50.864;4.406;2023-04-03T02:12:29;3.17;;;2.80;;
25731;SDS011;13585;50.864;4.406;2023-04-03T02:14:54;3.20;;;2.85;;
25731;SDS011;13585;50.864;4.406;2023-04-03T02:17:20;3.58;;;2.78;;
25731;SDS011;13585;50.864;4.406;2023-04-03T02:19:46;3.85;;;2.83;;
25731;SDS011;13585;50.864;4.406;2023-04-03T02:22:11;3.28;;;2.80;;
25731;SDS011;13585;50.864;4.406;2023-04-03T02:24:37;3.50;;;2.60;;
25731;SDS011;13585;50.864;4.406;2023-04-03T02:27:04;3.58;;;2.40;;
25731;SDS011;13585;50.864;4.406;2023-04-03T02:29:29;3.65;;;2.65;;
25731;SDS011;13585;50.864;4.406;2023-04-03T02:31:55;2.67;;;2.42;;
25731;SDS011;13585;50.864;4.406;2023-04-03T02:34:21;3.50;;;2.75;;
25731;SDS011;13585;50.864;4.406;2023-04-03T02:36:46;2.92;;;2.55;;
25731;SDS011;13585;50.864;4.406;2023-04-03T02:39:12;3.78;;;2.60;;
25731;SDS011;13585;50.864;4.406;2023-04-03T02:41:38;3.58;;;2.67;;
25731;SDS011;13585;50.864;4.406;2023-04-03T02:44:04;3.42;;;2.53;;
25731;SDS011;13585;50.864;4.406;2023-04-03T02:46:31;3.75;;;2.50;;
25731;SDS011;13585;50.864;4.406;2023-04-03T02:48:57;3.80;;;2.88;;
25731;SDS011;13585;50.864;4.406;2023-04-03T02:51:23;4.03;;;2.65;;
25731;SDS011;13585;50.864;4.406;2023-04-03T02:53:49;3.65;;;2.70;;
25731;SDS011;13585;50.864;4.406;2023-04-03T02:56:15;5.65;;;3.00;;
25731;SDS011;13585;50.864;4.406;2023-04-03T02:58:42;4.68;;;3.10;;
25731;SDS011;13585;50.864;4.406;2023-04-03T03:01:08;4.60;;;3.13;;
25731;SDS011;13585;50.864;4.406;2023-04-03T03:03:34;3.10;;;2.38;;
25731;SDS011;13585;50.864;4.406;2023-04-03T03:06:03;4.07;;;2.92;;
25731;SDS011;13585;50.864;4.406;2023-04-03T03:08:30;3.42;;;2.45;;
25731;SDS011;13585;50.864;4.406;2023-04-03T03:10:56;3.92;;;2.67;;
25731;SDS011;13585;50.864;4.406;2023-04-03T03:13:21;3.95;;;3.03;;
25731;SDS011;13585;50.864;4.406;2023-04-03T03:15:47;4.78;;;2.60;;
25731;SDS011;13585;50.864;4.406;2023-04-03T03:18:13;4.18;;;2.78;;
25731;SDS011;13585;50.864;4.406;2023-04-03T03:20:39;3.30;;;2.70;;
25731;SDS011;13585;50.864;4.406;2023-04-03T03:23:05;4.40;;;3.00;;
25731;SDS011;13585;50.864;4.406;2023-04-03T03:25:30;4.28;;;2.50;;
25731;SDS011;13585;50.864;4.406;2023-04-03T03:27:56;3.22;;;2.53;;
25731;SDS011;13585;50.864;4.406;2023-04-03T03:30:22;3.72;;;2.95;;
25731;SDS011;13585;50.864;4.406;2023-04-03T03:32:47;3.75;;;2.78;;
25731;SDS011;13585;50.864;4.406;2023-04-03T03:35:13;3.58;;;2.40;;
25731;SDS011;13585;50.864;4.406;2023-04-03T03:37:38;4.72;;;2.97;;
25731;SDS011;13585;50.864;4.406;2023-04-03T03:40:04;3.83;;;2.78;;
25731;SDS011;13585;50.864;4.406;2023-04-03T03:42:30;4.20;;;2.53;;
25731;SDS011;13585;50.864;4.406;2023-04-03T03:44:56;3.40;;;2.55;;
25731;SDS011;13585;50.864;4.406;2023-04-03T03:47:22;3.42;;;2.38;;
25731;SDS011;13585;50.864;4.406;2023-04-03T03:49:47;4.07;;;2.42;;
25731;SDS011;13585;50.864;4.406;2023-04-03T03:52:13;3.28;;;2.55;;
25731;SDS011;13585;50.864;4.406;2023-04-03T03:54:39;3.40;;;2.45;;
25731;SDS011;13585;50.864;4.406;2023-04-03T03:57:04;2.50;;;2.20;;
25731;SDS011;13585;50.864;4.406;2023-04-03T03:59:30;3.70;;;2.50;;
25731;SDS011;13585;50.864;4.406;2023-04-03T04:01:56;3.83;;;2.50;;
25731;SDS011;13585;50.864;4.406;2023-04-03T04:04:21;3.35;;;2.60;;
25731;SDS011;13585;50.864;4.406;2023-04-03T04:06:47;3.47;;;2.30;;
25731;SDS011;13585;50.864;4.406;2023-04-03T04:09:13;3.97;;;2.30;;
25731;SDS011;13585;50.864;4.406;2023-04-03T04:11:38;3.55;;;2.30;;
25731;SDS011;13585;50.864;4.406;2023-04-03T04:14:05;3.40;;;2.30;;
25731;SDS011;13585;50.864;4.406;2023-04-03T04:16:31;3.40;;;2.53;;
25731;SDS011;13585;50.864;4.406;2023-04-03T04:18:57;3.45;;;2.42;;
25731;SDS011;13585;50.864;4.406;2023-04-03T04:21:23;3.70;;;2.38;;
25731;SDS011;13585;50.864;4.406;2023-04-03T04:23:48;2.70;;;2.22;;
25731;SDS011;13585;50.864;4.406;2023-04-03T04:26:14;2.72;;;2.00;;
25731;SDS011;13585;50.864;4.406;2023-04-03T04:28:40;2.53;;;2.25;;
25731;SDS011;13585;50.864;4.406;2023-04-03T04:31:05;3.25;;;2.38;;
25731;SDS011;13585;50.864;4.406;2023-04-03T04:33:31;2.97;;;2.28;;
25731;SDS011;13585;50.864;4.406;2023-04-03T04:35:57;4.78;;;2.58;;
25731;SDS011;13585;50.864;4.406;2023-04-03T04:38:22;4.43;;;2.40;;
25731;SDS011;13585;50.864;4.406;2023-04-03T04:40:48;4.50;;;2.42;;
25731;SDS011;13585;50.864;4.406;2023-04-03T04:43:14;2.70;;;2.10;;
25731;SDS011;13585;50.864;4.406;2023-04-03T04:45:40;3.15;;;2.35;;
25731;SDS011;13585;50.864;4.406;2023-04-03T04:48:06;5.53;;;2.15;;
25731;SDS011;13585;50.864;4.406;2023-04-03T04:50:32;3.63;;;2.38;;
25731;SDS011;13585;50.864;4.406;2023-04-03T04:52:57;3.63;;;2.20;;
25731;SDS011;13585;50.864;4.406;2023-04-03T04:55:23;2.47;;;1.77;;
25731;SDS011;13585;50.864;4.406;2023-04-03T04:57:49;2.63;;;2.00;;
25731;SDS011;13585;50.864;4.406;2023-04-03T05:00:15;2.63;;;2.10;;
25731;SDS011;13585;50.864;4.406;2023-04-03T05:02:40;3.38;;;2.33;;
25731;SDS011;13585;50.864;4.406;2023-04-03T05:05:06;3.28;;;2.40;;
25731;SDS011;13585;50.864;4.406;2023-04-03T05:07:32;2.90;;;2.00;;
25731;SDS011;13585;50.864;4.406;2023-04-03T05:09:58;3.33;;;2.05;;
25731;SDS011;13585;50.864;4.406;2023-04-03T05:12:23;3.35;;;2.10;;
25731;SDS011;13585;50.864;4.406;2023-04-03T05:14:49;2.70;;;2.22;;
25731;SDS011;13585;50.864;4.406;2023-04-03T05:17:15;4.43;;;2.15;;
25731;SDS011;13585;50.864;4.406;2023-04-03T05:19:40;4.50;;;1.90;;
25731;SDS011;13585;50.864;4.406;2023-04-03T05:22:06;2.53;;;1.95;;
25731;SDS011;13585;50.864;4.406;2023-04-03T05:24:32;3.70;;;2.17;;
25731;SDS011;13585;50.864;4.406;2023-04-03T05:26:58;4.30;;;2.03;;
25731;SDS011;13585;50.864;4.406;2023-04-03T05:29:23;3.05;;;2.08;;
25731;SDS011;13585;50.864;4.406;2023-04-03T05:31:50;3.05;;;2.20;;
25731;SDS011;13585;50.864;4.406;2023-04-03T05:34:16;3.53;;;2.63;;
25731;SDS011;13585;50.864;4.406;2023-04-03T05:36:41;3.35;;;2.42;;
25731;SDS011;13585;50.864;4.406;2023-04-03T05:39:07;4.00;;;2.25;;
25731;SDS011;13585;50.864;4.406;2023-04-03T05:41:33;2.05;;;1.83;;
25731;SDS011;13585;50.864;4.406;2023-04-03T05:43:59;2.85;;;2.22;;
25731;SDS011;13585;50.864;4.406;2023-04-03T05:46:27;3.35;;;2.10;;
25731;SDS011;13585;50.864;4.406;2023-04-03T05:48:53;3.33;;;2.00;;
25731;SDS011;13585;50.864;4.406;2023-04-03T05:51:22;3.20;;;2.00;;
25731;SDS011;13585;50.864;4.406;2023-04-03T05:54:00;2.40;;;2.00;;
25731;SDS011;13585;50.864;4.406;2023-04-03T05:56:34;4.72;;;2.08;;
25731;SDS011;13585;50.864;4.406;2023-04-03T05:58:59;3.47;;;2.10;;
25731;SDS011;13585;50.864;4.406;2023-04-03T06:01:25;2.47;;;1.95;;
25731;SDS011;13585;50.864;4.406;2023-04-03T06:03:51;2.95;;;1.90;;
25731;SDS011;13585;50.864;4.406;2023-04-03T06:06:17;2.88;;;2.22;;
25731;SDS011;13585;50.864;4.406;2023-04-03T06:08:42;3.90;;;2.25;;
25731;SDS011;13585;50.864;4.406;2023-04-03T06:11:08;3.30;;;2.10;;
25731;SDS011;13585;50.864;4.406;2023-04-03T06:13:34;2.75;;;1.92;;
25731;SDS011;13585;50.864;4.406;2023-04-03T06:16:00;2.60;;;2.08;;
25731;SDS011;13585;50.864;4.406;2023-04-03T06:18:25;3.03;;;2.10;;
25731;SDS011;13585;50.864;4.406;2023-04-03T06:20:51;4.28;;;2.15;;
25731;SDS011;13585;50.864;4.406;2023-04-03T06:23:17;3.13;;;2.20;;
25731;SDS011;13585;50.864;4.406;2023-04-03T06:25:42;4.78;;;2.40;;
25731;SDS011;13585;50.864;4.406;2023-04-03T06:28:08;3.30;;;2.08;;
25731;SDS011;13585;50.864;4.406;2023-04-03T06:30:35;6.15;;;2.45;;
25731;SDS011;13585;50.864;4.406;2023-04-03T06:33:02;3.25;;;2.20;;
25731;SDS011;13585;50.864;4.406;2023-04-03T06:35:28;3.75;;;2.20;;
25731;SDS011;13585;50.864;4.406;2023-04-03T06:37:55;3.35;;;2.15;;
25731;SDS011;13585;50.864;4.406;2023-04-03T06:40:22;5.97;;;2.30;;
25731;SDS011;13585;50.864;4.406;2023-04-03T06:42:49;3.00;;;2.10;;
25731;SDS011;13585;50.864;4.406;2023-04-03T06:45:16;2.88;;;2.00;;
25731;SDS011;13585;50.864;4.406;2023-04-03T06:47:42;3.40;;;2.20;;
25731;SDS011;13585;50.864;4.406;2023-04-03T06:50:09;3.92;;;2.50;;
25731;SDS011;13585;50.864;4.406;2023-04-03T06:52:36;2.60;;;2.15;;
25731;SDS011;13585;50.864;4.406;2023-04-03T06:55:02;4.30;;;2.38;;
25731;SDS011;13585;50.864;4.406;2023-04-03T06:57:29;2.78;;;2.25;;
25731;SDS011;13585;50.864;4.406;2023-04-03T06:59:54;4.18;;;2.20;;
25731;SDS011;13585;50.864;4.406;2023-04-03T07:02:20;4.78;;;2.15;;
25731;SDS011;13585;50.864;4.406;2023-04-03T07:04:46;4.05;;;2.22;;
25731;SDS011;13585;50.864;4.406;2023-04-03T07:07:12;2.78;;;2.00;;
25731;SDS011;13585;50.864;4.406;2023-04-03T07:09:38;2.72;;;2.08;;
25731;SDS011;13585;50.864;4.406;2023-04-03T07:12:03;3.35;;;2.38;;
25731;SDS011;13585;50.864;4.406;2023-04-03T07:14:29;2.85;;;2.15;;
25731;SDS011;13585;50.864;4.406;2023-04-03T07:16:55;3.10;;;2.22;;
25731;SDS011;13585;50.864;4.406;2023-04-03T07:19:20;2.90;;;2.08;;
25731;SDS011;13585;50.864;4.406;2023-04-03T07:21:46;4.43;;;2.33;;
25731;SDS011;13585;50.864;4.406;2023-04-03T07:24:12;2.78;;;2.45;;
25731;SDS011;13585;50.864;4.406;2023-04-03T07:26:37;2.47;;;2.20;;
25731;SDS011;13585;50.864;4.406;2023-04-03T07:29:03;4.15;;;1.98;;
25731;SDS011;13585;50.864;4.406;2023-04-03T07:31:29;3.92;;;2.45;;
25731;SDS011;13585;50.864;4.406;2023-04-03T07:33:54;2.47;;;1.90;;
25731;SDS011;13585;50.864;4.406;2023-04-03T07:36:21;3.25;;;2.50;;
25731;SDS011;13585;50.864;4.406;2023-04-03T07:38:47;3.60;;;2.50;;
25731;SDS011;13585;50.864;4.406;2023-04-03T07:41:16;2.78;;;2.00;;
25731;SDS011;13585;50.864;4.406;2023-04-03T07:43:44;5.00;;;2.20;;
25731;SDS011;13585;50.864;4.406;2023-04-03T07:46:11;4.00;;;2.30;;
25731;SDS011;13585;50.864;4.406;2023-04-03T07:48:37;5.00;;;2.45;;
25731;SDS011;13585;50.864;4.406;2023-04-03T07:51:03;4.18;;;2.30;;
25731;SDS011;13585;50.864;4.406;2023-04-03T07:53:30;3.05;;;2.28;;
25731;SDS011;13585;50.864;4.406;2023-04-03T07:55:57;2.50;;;2.10;;
25731;SDS011;13585;50.864;4.406;2023-04-03T07:58:23;3.17;;;2.15;;
25731;SDS011;13585;50.864;4.406;2023-04-03T08:00:50;3.42;;;2.08;;
25731;SDS011;13585;50.864;4.406;2023-04-03T08:03:16;3.88;;;2.03;;
25731;SDS011;13585;50.864;4.406;2023-04-03T08:05:43;3.53;;;2.45;;
25731;SDS011;13585;50.864;4.406;2023-04-03T08:08:11;3.75;;;2.72;;
25731;SDS011;13585;50.864;4.406;2023-04-03T08:10:38;4.20;;;2.42;;
25731;SDS011;13585;50.864;4.406;2023-04-03T08:13:04;2.67;;;2.30;;
25731;SDS011;13585;50.864;4.406;2023-04-03T08:15:30;2.80;;;2.30;;
25731;SDS011;13585;50.864;4.406;2023-04-03T08:17:59;3.53;;;2.22;;
25731;SDS011;13585;50.864;4.406;2023-04-03T08:20:25;2.88;;;2.30;;
25731;SDS011;13585;50.864;4.406;2023-04-03T08:22:51;3.28;;;2.13;;
25731;SDS011;13585;50.864;4.406;2023-04-03T08:25:17;3.58;;;2.20;;
25731;SDS011;13585;50.864;4.406;2023-04-03T08:27:43;3.30;;;2.40;;
25731;SDS011;13585;50.864;4.406;2023-04-03T08:30:09;3.88;;;2.00;;
25731;SDS011;13585;50.864;4.406;2023-04-03T08:32:35;2.58;;;1.95;;
25731;SDS011;13585;50.864;4.406;2023-04-03T08:35:01;3.15;;;2.38;;
25731;SDS011;13585;50.864;4.406;2023-04-03T08:37:28;3.95;;;2.28;;
25731;SDS011;13585;50.864;4.406;2023-04-03T08:39:53;3.25;;;2.10;;
25731;SDS011;13585;50.864;4.406;2023-04-03T08:42:27;3.38;;;2.30;;
25731;SDS011;13585;50.864;4.406;2023-04-03T08:45:19;3.35;;;2.30;;
25731;SDS011;13585;50.864;4.406;2023-04-03T08:50:33;3.35;;;2.20;;
25731;SDS011;13585;50.864;4.406;2023-04-03T08:53:02;2.90;;;2.08;;
25731;SDS011;13585;50.864;4.406;2023-04-03T08:55:37;3.17;;;2.10;;
25731;SDS011;13585;50.864;4.406;2023-04-03T08:58:26;3.22;;;2.08;;
25731;SDS011;13585;50.864;4.406;2023-04-03T09:00:58;3.25;;;2.05;;
25731;SDS011;13585;50.864;4.406;2023-04-03T09:03:29;3.15;;;1.80;;
25731;SDS011;13585;50.864;4.406;2023-04-03T09:08:29;3.42;;;2.30;;
25731;SDS011;13585;50.864;4.406;2023-04-03T09:16:55;1.80;;;1.55;;
25731;SDS011;13585;50.864;4.406;2023-04-03T09:22:02;3.25;;;1.92;;
25731;SDS011;13585;50.864;4.406;2023-04-03T09:24:47;3.72;;;2.20;;
25731;SDS011;13585;50.864;4.406;2023-04-03T09:27:21;2.55;;;1.90;;
25731;SDS011;13585;50.864;4.406;2023-04-03T09:29:46;4.75;;;2.25;;
25731;SDS011;13585;50.864;4.406;2023-04-03T09:32:33;3.67;;;2.03;;
25731;SDS011;13585;50.864;4.406;2023-04-03T09:37:45;2.65;;;1.80;;
25731;SDS011;13585;50.864;4.406;2023-04-03T09:42:51;3.25;;;1.70;;
25731;SDS011;13585;50.864;4.406;2023-04-03T09:48:15;2.88;;;1.92;;
25731;SDS011;13585;50.864;4.406;2023-04-03T09:53:28;2.70;;;1.88;;
25731;SDS011;13585;50.864;4.406;2023-04-03T09:58:42;2.97;;;2.00;;
25731;SDS011;13585;50.864;4.406;2023-04-03T10:01:29;2.75;;;1.90;;
25731;SDS011;13585;50.864;4.406;2023-04-03T10:04:10;3.10;;;2.20;;
25731;SDS011;13585;50.864;4.406;2023-04-03T10:06:45;2.40;;;1.77;;
25731;SDS011;13585;50.864;4.406;2023-04-03T10:09:23;2.92;;;1.58;;
25731;SDS011;13585;50.864;4.406;2023-04-03T10:14:32;3.10;;;1.83;;
25731;SDS011;13585;50.864;4.406;2023-04-03T10:19:47;3.45;;;1.70;;
25731;SDS011;13585;50.864;4.406;2023-04-03T10:27:56;2.33;;;1.60;;
25731;SDS011;13585;50.864;4.406;2023-04-03T10:30:34;2.92;;;1.67;;
25731;SDS011;13585;50.864;4.406;2023-04-03T10:36:12;2.45;;;1.40;;
25731;SDS011;13585;50.864;4.406;2023-04-03T10:46:47;2.55;;;1.45;;
25731;SDS011;13585;50.864;4.406;2023-04-03T10:49:22;2.85;;;1.63;;
25731;SDS011;13585;50.864;4.406;2023-04-03T10:52:14;4.47;;;1.95;;
25731;SDS011;13585;50.864;4.406;2023-04-03T10:55:01;3.15;;;1.67;;
25731;SDS011;13585;50.864;4.406;2023-04-03T10:57:47;2.10;;;1.35;;
25731;SDS011;13585;50.864;4.406;2023-04-03T11:00:25;2.15;;;1.40;;
25731;SDS011;13585;50.864;4.406;2023-04-03T11:03:15;1.73;;;1.35;;
25731;SDS011;13585;50.864;4.406;2023-04-03T11:05:48;2.55;;;1.58;;
25731;SDS011;13585;50.864;4.406;2023-04-03T11:11:17;2.53;;;1.70;;
25731;SDS011;13585;50.864;4.406;2023-04-03T11:13:49;2.63;;;1.80;;
25731;SDS011;13585;50.864;4.406;2023-04-03T11:16:21;3.30;;;1.75;;
25731;SDS011;13585;50.864;4.406;2023-04-03T11:18:52;2.47;;;1.40;;
25731;SDS011;13585;50.864;4.406;2023-04-03T11:24:31;1.92;;;1.30;;
25731;SDS011;13585;50.864;4.406;2023-04-03T11:27:01;1.63;;;1.38;;
25731;SDS011;13585;50.864;4.406;2023-04-03T11:29:32;2.20;;;1.48;;
25731;SDS011;13585;50.864;4.406;2023-04-03T11:32:17;2.60;;;1.52;;
25731;SDS011;13585;50.864;4.406;2023-04-03T11:35:07;2.72;;;1.40;;
25731;SDS011;13585;50.864;4.406;2023-04-03T11:37:35;2.65;;;1.83;;
25731;SDS011;13585;50.864;4.406;2023-04-03T11:40:24;2.85;;;1.50;;
25731;SDS011;13585;50.864;4.406;2023-04-03T11:50:46;1.60;;;1.27;;
25731;SDS011;13585;50.864;4.406;2023-04-03T11:58:17;1.77;;;1.27;;
25731;SDS011;13585;50.864;4.406;2023-04-03T12:13:38;5.20;;;1.80;;
25731;SDS011;13585;50.864;4.406;2023-04-03T12:16:04;2.72;;;1.70;;
25731;SDS011;13585;50.864;4.406;2023-04-03T12:21:06;3.47;;;1.83;;
25731;SDS011;13585;50.864;4.406;2023-04-03T12:23:33;2.72;;;1.50;;
25731;SDS011;13585;50.864;4.406;2023-04-03T12:26:20;3.63;;;1.50;;
25731;SDS011;13585;50.864;4.406;2023-04-03T12:28:47;2.15;;;1.42;;
25731;SDS011;13585;50.864;4.406;2023-04-03T12:31:15;3.00;;;1.50;;
25731;SDS011;13585;50.864;4.406;2023-04-03T12:36:58;3.40;;;1.73;;
25731;SDS011;13585;50.864;4.406;2023-04-03T12:45:00;3.20;;;1.50;;
25731;SDS011;13585;50.864;4.406;2023-04-03T12:47:40;6.00;;;1.50;;
25731;SDS011;13585;50.864;4.406;2023-04-03T12:55:38;4.57;;;1.70;;
25731;SDS011;13585;50.864;4.406;2023-04-03T13:01:15;5.07;;;1.65;;
25731;SDS011;13585;50.864;4.406;2023-04-03T13:03:47;4.47;;;2.00;;
25731;SDS011;13585;50.864;4.406;2023-04-03T13:06:18;4.45;;;1.90;;
25731;SDS011;13585;50.864;4.406;2023-04-03T13:08:52;5.53;;;1.85;;
25731;SDS011;13585;50.864;4.406;2023-04-03T13:11:19;3.03;;;1.57;;
25731;SDS011;13585;50.864;4.406;2023-04-03T13:13:53;2.55;;;1.55;;
25731;SDS011;13585;50.864;4.406;2023-04-03T13:16:24;4.72;;;1.73;;
25731;SDS011;13585;50.864;4.406;2023-04-03T13:18:50;3.25;;;1.70;;
25731;SDS011;13585;50.864;4.406;2023-04-03T13:21:29;3.20;;;1.77;;
25731;SDS011;13585;50.864;4.406;2023-04-03T13:23:57;6.45;;;2.00;;
25731;SDS011;13585;50.864;4.406;2023-04-03T13:26:27;3.50;;;1.75;;
25731;SDS011;13585;50.864;4.406;2023-04-03T13:28:56;4.15;;;1.70;;
25731;SDS011;13585;50.864;4.406;2023-04-03T13:31:27;4.30;;;1.70;;
25731;SDS011;13585;50.864;4.406;2023-04-03T13:34:04;3.88;;;1.65;;
25731;SDS011;13585;50.864;4.406;2023-04-03T13:36:41;3.03;;;1.85;;
25731;SDS011;13585;50.864;4.406;2023-04-03T13:41:43;3.93;;;1.50;;
25731;SDS011;13585;50.864;4.406;2023-04-03T13:46:54;4.75;;;1.85;;
25731;SDS011;13585;50.864;4.406;2023-04-03T13:51:58;2.78;;;1.85;;
25731;SDS011;13585;50.864;4.406;2023-04-03T13:56:56;3.67;;;2.00;;
25731;SDS011;13585;50.864;4.406;2023-04-03T13:59:24;3.95;;;1.75;;
25731;SDS011;13585;50.864;4.406;2023-04-03T14:04:29;3.67;;;1.98;;
25731;SDS011;13585;50.864;4.406;2023-04-03T14:06:57;2.25;;;1.60;;
25731;SDS011;13585;50.864;4.406;2023-04-03T14:12:00;3.08;;;1.88;;
25731;SDS011;13585;50.864;4.406;2023-04-03T14:14:31;2.75;;;1.60;;
25731;SDS011;13585;50.864;4.406;2023-04-03T14:16:59;3.30;;;2.08;;
25731;SDS011;13585;50.864;4.406;2023-04-03T14:19:28;3.67;;;1.92;;
25731;SDS011;13585;50.864;4.406;2023-04-03T14:21:57;4.05;;;1.65;;
25731;SDS011;13585;50.864;4.406;2023-04-03T14:24:23;2.70;;;1.83;;
25731;SDS011;13585;50.864;4.406;2023-04-03T14:26:50;4.65;;;2.17;;
25731;SDS011;13585;50.864;4.406;2023-04-03T14:29:18;5.45;;;1.90;;
25731;SDS011;13585;50.864;4.406;2023-04-03T14:31:46;3.67;;;2.00;;
25731;SDS011;13585;50.864;4.406;2023-04-03T14:34:13;5.05;;;1.98;;
25731;SDS011;13585;50.864;4.406;2023-04-03T14:36:40;3.83;;;1.90;;
25731;SDS011;13585;50.864;4.406;2023-04-03T14:39:10;3.72;;;1.88;;
25731;SDS011;13585;50.864;4.406;2023-04-03T14:41:42;3.20;;;2.00;;
25731;SDS011;13585;50.864;4.406;2023-04-03T14:44:08;2.65;;;1.80;;
25731;SDS011;13585;50.864;4.406;2023-04-03T14:46:36;2.58;;;1.70;;
25731;SDS011;13585;50.864;4.406;2023-04-03T14:49:08;4.75;;;1.80;;
25731;SDS011;13585;50.864;4.406;2023-04-03T14:51:39;4.38;;;2.05;;
25731;SDS011;13585;50.864;4.406;2023-04-03T14:54:05;3.13;;;1.85;;
25731;SDS011;13585;50.864;4.406;2023-04-03T14:56:36;2.85;;;1.67;;
25731;SDS011;13585;50.864;4.406;2023-04-03T14:59:01;2.50;;;1.70;;
25731;SDS011;13585;50.864;4.406;2023-04-03T15:01:30;4.55;;;2.10;;
25731;SDS011;13585;50.864;4.406;2023-04-03T15:03:56;4.60;;;1.55;;
25731;SDS011;13585;50.864;4.406;2023-04-03T15:06:21;3.90;;;1.77;;
25731;SDS011;13585;50.864;4.406;2023-04-03T15:08:47;2.10;;;1.63;;
25731;SDS011;13585;50.864;4.406;2023-04-03T15:11:13;4.97;;;1.77;;
25731;SDS011;13585;50.864;4.406;2023-04-03T15:13:40;2.33;;;1.50;;
25731;SDS011;13585;50.864;4.406;2023-04-03T15:16:11;2.70;;;1.60;;
25731;SDS011;13585;50.864;4.406;2023-04-03T15:18:41;4.13;;;1.83;;
25731;SDS011;13585;50.864;4.406;2023-04-03T15:21:08;3.80;;;1.90;;
25731;SDS011;13585;50.864;4.406;2023-04-03T15:23:33;2.88;;;1.48;;
25731;SDS011;13585;50.864;4.406;2023-04-03T15:25:59;2.40;;;1.65;;
25731;SDS011;13585;50.864;4.406;2023-04-03T15:31:01;2.92;;;1.95;;
25731;SDS011;13585;50.864;4.406;2023-04-03T15:33:28;3.22;;;1.73;;
25731;SDS011;13585;50.864;4.406;2023-04-03T15:35:54;3.13;;;1.90;;
25731;SDS011;13585;50.864;4.406;2023-04-03T15:38:20;3.22;;;1.75;;
25731;SDS011;13585;50.864;4.406;2023-04-03T15:40:45;3.90;;;2.00;;
25731;SDS011;13585;50.864;4.406;2023-04-03T15:43:14;2.10;;;1.42;;
25731;SDS011;13585;50.864;4.406;2023-04-03T15:45:40;3.95;;;1.67;;
25731;SDS011;13585;50.864;4.406;2023-04-03T15:48:06;5.22;;;2.03;;
25731;SDS011;13585;50.864;4.406;2023-04-03T15:50:33;2.33;;;1.67;;
25731;SDS011;13585;50.864;4.406;2023-04-03T15:53:00;3.65;;;1.95;;
25731;SDS011;13585;50.864;4.406;2023-04-03T15:55:27;2.92;;;1.65;;
25731;SDS011;13585;50.864;4.406;2023-04-03T15:57:55;2.25;;;1.50;;
25731;SDS011;13585;50.864;4.406;2023-04-03T16:00:22;3.58;;;1.85;;
25731;SDS011;13585;50.864;4.406;2023-04-03T16:02:50;4.22;;;2.30;;
25731;SDS011;13585;50.864;4.406;2023-04-03T16:05:18;2.35;;;1.70;;
25731;SDS011;13585;50.864;4.406;2023-04-03T16:07:44;3.92;;;1.67;;
25731;SDS011;13585;50.864;4.406;2023-04-03T16:10:15;5.03;;;1.70;;
25731;SDS011;13585;50.864;4.406;2023-04-03T16:12:42;6.47;;;1.80;;
25731;SDS011;13585;50.864;4.406;2023-04-03T16:15:08;5.22;;;1.95;;
25731;SDS011;13585;50.864;4.406;2023-04-03T16:17:34;4.03;;;1.58;;
25731;SDS011;13585;50.864;4.406;2023-04-03T16:20:06;5.63;;;1.95;;
25731;SDS011;13585;50.864;4.406;2023-04-03T16:22:33;3.65;;;1.60;;
25731;SDS011;13585;50.864;4.406;2023-04-03T16:24:59;6.50;;;1.98;;
25731;SDS011;13585;50.864;4.406;2023-04-03T16:27:25;8.20;;;1.85;;
25731;SDS011;13585;50.864;4.406;2023-04-03T16:30:04;3.85;;;1.98;;
25731;SDS011;13585;50.864;4.406;2023-04-03T16:32:31;5.88;;;2.10;;
25731;SDS011;13585;50.864;4.406;2023-04-03T16:35:03;6.68;;;2.13;;
25731;SDS011;13585;50.864;4.406;2023-04-03T16:37:30;5.10;;;2.20;;
25731;SDS011;13585;50.864;4.406;2023-04-03T16:39:55;3.85;;;2.03;;
25731;SDS011;13585;50.864;4.406;2023-04-03T16:42:23;9.07;;;2.40;;
25731;SDS011;13585;50.864;4.406;2023-04-03T16:44:49;5.13;;;2.35;;
25731;SDS011;13585;50.864;4.406;2023-04-03T16:47:15;6.47;;;2.60;;
25731;SDS011;13585;50.864;4.406;2023-04-03T16:49:44;4.88;;;2.70;;
25731;SDS011;13585;50.864;4.406;2023-04-03T16:52:10;6.45;;;2.58;;
25731;SDS011;13585;50.864;4.406;2023-04-03T16:54:36;14.98;;;2.42;;
25731;SDS011;13585;50.864;4.406;2023-04-03T16:57:01;4.60;;;2.60;;
25731;SDS011;13585;50.864;4.406;2023-04-03T16:59:27;6.32;;;2.28;;
25731;SDS011;13585;50.864;4.406;2023-04-03T17:01:53;4.65;;;2.88;;